Time;durP1;ratioP1;P1;durP2;ratioP2;P2;SDS_P1;SDS_P2;PMS_P1;PMS_P2;Temp;Humidity;BMP_temperature;BMP_pressure;BME280_temperature;BME280_humidity;BME280_pressure;Samples;Min_cycle;Max_cycle;Signal;HPM_P1;HPM_P2
2021/06/16 00:00:06;;;;;;;3.63;2.30;;;22.00;66.60;;;;;;5044452;28;20036;-81
2021/06/16 00:02:31;;;;;;;2.75;1.80;;;22.00;66.60;;;;;;5044373;28;20059;-80
2021/06/16 00:04:57;;;;;;;3.47;1.92;;;22.00;65.90;;;;;;5043751;28;20432;-81
2021/06/16 00:07:23;;;;;;;3.17;2.00;;;21.90;66.30;;;;;;5043910;28;20424;-81
2021/06/16 00:09:48;;;;;;;3.58;2.00;;;21.90;66.80;;;;;;5043854;28;20025;-81
2021/06/16 00:12:14;;;;;;;3.28;2.00;;;21.90;68.00;;;;;;5043751;28;20028;-79
2021/06/16 00:14:40;;;;;;;2.65;2.17;;;21.90;67.40;;;;;;5043422;28;20500;-81
2021/06/16 00:17:06;;;;;;;2.45;2.20;;;21.90;67.50;;;;;;5044005;28;20029;-80
2021/06/16 00:19:32;;;;;;;4.90;2.53;;;21.90;68.30;;;;;;5043155;28;20465;-81
2021/06/16 00:21:57;;;;;;;5.50;2.20;;;21.80;68.70;;;;;;5043621;28;20021;-80
2021/06/16 00:24:23;;;;;;;5.00;2.10;;;21.80;68.70;;;;;;5044066;28;20359;-79
2021/06/16 00:26:49;;;;;;;2.47;1.90;;;21.70;68.70;;;;;;5043182;28;20029;-77
2021/06/16 00:29:15;;;;;;;3.50;2.20;;;21.70;68.70;;;;;;5060978;28;20377;-79
2021/06/16 00:31:41;;;;;;;3.22;2.15;;;21.70;68.70;;;;;;5042957;28;20025;-80
2021/06/16 00:34:07;;;;;;;3.65;2.08;;;21.60;68.60;;;;;;5043052;28;20428;-80
2021/06/16 00:36:33;;;;;;;3.25;2.10;;;21.60;68.60;;;;;;5043108;28;20033;-79
2021/06/16 00:38:59;;;;;;;3.65;2.08;;;21.60;68.20;;;;;;5042913;28;20036;-78
2021/06/16 00:41:26;;;;;;;3.88;2.05;;;21.60;68.70;;;;;;5043463;28;20028;-79
2021/06/16 00:43:52;;;;;;;2.83;1.95;;;21.60;68.30;;;;;;5053468;28;20056;-81
2021/06/16 00:46:18;;;;;;;2.00;1.80;;;21.60;68.30;;;;;;5063015;28;20041;-81
2021/06/16 00:48:44;;;;;;;2.22;1.90;;;21.60;68.10;;;;;;5053709;28;20067;-82
2021/06/16 00:51:09;;;;;;;4.50;2.15;;;21.50;68.00;;;;;;5060877;28;20029;-80
2021/06/16 00:53:35;;;;;;;2.72;2.10;;;21.50;68.00;;;;;;5043305;28;20029;-81
2021/06/16 00:56:01;;;;;;;3.55;1.90;;;21.50;68.00;;;;;;5043692;28;20025;-80
2021/06/16 00:58:26;;;;;;;3.50;2.03;;;21.50;67.90;;;;;;5044058;28;20370;-81
2021/06/16 01:00:59;;;;;;;3.72;2.20;;;21.40;68.50;;;;;;5042965;28;20025;-81
2021/06/16 01:03:28;;;;;;;3.72;2.10;;;21.30;68.50;;;;;;5043284;28;20083;-79
2021/06/16 01:06:07;;;;;;;2.33;1.73;;;21.40;68.30;;;;;;5041935;28;20032;-80
2021/06/16 01:08:39;;;;;;;2.58;2.03;;;21.30;68.20;;;;;;5042490;28;20037;-80
2021/06/16 01:11:09;;;;;;;3.15;2.08;;;21.30;68.30;;;;;;5042948;28;20040;-80
2021/06/16 01:13:43;;;;;;;4.15;2.03;;;21.30;68.30;;;;;;5042512;28;20116;-80
2021/06/16 01:16:27;;;;;;;5.63;2.00;;;21.30;68.10;;;;;;5042854;28;20052;-80
2021/06/16 01:18:57;;;;;;;3.30;1.90;;;21.20;68.50;;;;;;5049279;28;20064;-80
2021/06/16 01:21:25;;;;;;;2.20;1.80;;;21.20;68.40;;;;;;5022831;28;20041;-80
2021/06/16 01:24:01;;;;;;;3.10;2.05;;;21.10;68.50;;;;;;5022815;28;20029;-80
2021/06/16 01:26:34;;;;;;;2.55;2.15;;;21.10;69.00;;;;;;5054164;28;20022;-81
2021/06/16 01:29:23;;;;;;;3.45;1.90;;;20.90;69.10;;;;;;5042732;28;20152;-80
2021/06/16 01:31:50;;;;;;;3.90;1.85;;;20.90;69.60;;;;;;5042741;28;20473;-81
2021/06/16 01:34:19;;;;;;;2.88;2.00;;;20.90;69.40;;;;;;5042429;28;20167;-80
2021/06/16 01:36:47;;;;;;;3.25;2.30;;;20.90;69.60;;;;;;5060380;28;20021;-80
2021/06/16 01:39:16;;;;;;;5.32;2.20;;;20.90;69.50;;;;;;5042014;28;20037;-79
2021/06/16 01:41:43;;;;;;;4.72;2.28;;;20.90;69.70;;;;;;5041381;28;20032;-81
2021/06/16 01:44:11;;;;;;;2.38;2.13;;;20.90;69.70;;;;;;5041191;28;20071;-79
2021/06/16 01:46:38;;;;;;;3.28;2.10;;;20.90;69.60;;;;;;5041202;28;20048;-79
2021/06/16 01:49:05;;;;;;;2.97;2.10;;;20.80;69.70;;;;;;5041305;28;20035;-80
2021/06/16 01:51:32;;;;;;;3.85;2.05;;;20.80;70.10;;;;;;5041806;28;20120;-80
2021/06/16 01:53:59;;;;;;;2.33;2.08;;;20.70;70.30;;;;;;5041120;28;20831;-79
2021/06/16 01:56:27;;;;;;;2.95;2.05;;;20.70;70.40;;;;;;5041407;28;20029;-79
2021/06/16 01:58:54;;;;;;;3.40;2.20;;;20.60;70.80;;;;;;5041535;28;20036;-79
2021/06/16 02:01:22;;;;;;;4.22;2.10;;;20.60;70.80;;;;;;5041741;28;20021;-80
2021/06/16 02:03:48;;;;;;;2.25;2.00;;;20.60;71.20;;;;;;5041573;28;20051;-80
2021/06/16 02:06:18;;;;;;;3.38;2.30;;;20.60;72.20;;;;;;5041426;28;20028;-79
2021/06/16 02:08:47;;;;;;;2.72;2.03;;;20.60;71.60;;;;;;5058390;28;20055;-80
2021/06/16 02:11:19;;;;;;;4.45;2.17;;;20.60;71.80;;;;;;5041414;28;20041;-80
2021/06/16 02:13:58;;;;;;;2.95;2.33;;;20.60;72.20;;;;;;5041209;28;20032;-80
2021/06/16 02:16:45;;;;;;;4.75;2.70;;;20.40;73.10;;;;;;5041317;28;20021;-80
2021/06/16 02:19:16;;;;;;;5.35;2.92;;;20.50;73.40;;;;;;5028670;28;20033;-80
2021/06/16 02:21:42;;;;;;;3.80;2.58;;;20.50;74.00;;;;;;5020562;28;20455;-82
2021/06/16 02:24:09;;;;;;;3.35;2.33;;;20.50;74.00;;;;;;5021484;28;20120;-81
2021/06/16 02:26:35;;;;;;;4.90;2.70;;;20.40;74.20;;;;;;5021443;28;20108;-80
2021/06/16 02:29:02;;;;;;;4.30;2.63;;;20.50;74.10;;;;;;5019891;28;20217;-80
2021/06/16 02:31:28;;;;;;;3.42;2.65;;;20.50;74.40;;;;;;5022523;28;20029;-84
2021/06/16 02:33:54;;;;;;;4.35;2.85;;;20.40;74.80;;;;;;5038120;28;20437;-79
2021/06/16 02:36:22;;;;;;;3.25;2.30;;;20.30;74.80;;;;;;5058521;28;20040;-79
2021/06/16 02:38:54;;;;;;;4.35;2.40;;;20.30;75.30;;;;;;5040474;28;20021;-80
2021/06/16 02:41:20;;;;;;;3.17;2.40;;;20.30;75.60;;;;;;5041212;28;20029;-79
2021/06/16 02:43:46;;;;;;;4.07;2.47;;;20.20;75.80;;;;;;5039900;28;20123;-79
2021/06/16 02:46:12;;;;;;;4.80;2.75;;;20.20;76.20;;;;;;5040495;28;20116;-79
2021/06/16 02:48:45;;;;;;;3.88;2.75;;;20.20;76.10;;;;;;5058336;28;20032;-79
2021/06/16 02:51:12;;;;;;;5.78;3.17;;;20.20;76.00;;;;;;5040929;28;20036;-81
2021/06/16 02:53:41;;;;;;;4.97;2.78;;;20.20;76.30;;;;;;5040953;28;20025;-80
2021/06/16 02:56:07;;;;;;;4.72;2.92;;;20.10;77.10;;;;;;5040704;28;20028;-80
2021/06/16 02:58:36;;;;;;;3.90;2.65;;;20.10;76.80;;;;;;5040892;28;20100;-81
2021/06/16 03:01:04;;;;;;;3.35;2.90;;;20.10;76.70;;;;;;5040412;28;20025;-80
2021/06/16 03:03:31;;;;;;;5.30;2.97;;;20.10;76.70;;;;;;5040796;28;20377;-79
2021/06/16 03:05:59;;;;;;;2.92;2.58;;;20.00;76.70;;;;;;5040878;28;20029;-81
2021/06/16 03:08:26;;;;;;;5.28;2.55;;;20.10;76.70;;;;;;5059032;28;20419;-80
2021/06/16 03:10:53;;;;;;;4.78;2.63;;;20.00;76.80;;;;;;5058835;28;20090;-84
2021/06/16 03:13:19;;;;;;;3.70;2.78;;;20.00;76.60;;;;;;5041198;28;20033;-82
2021/06/16 03:15:46;;;;;;;5.32;2.90;;;19.90;76.90;;;;;;5039557;28;20025;-80
2021/06/16 03:18:15;;;;;;;6.30;3.33;;;19.90;76.80;;;;;;5034550;28;20462;-78
2021/06/16 03:20:42;;;;;;;4.20;2.60;;;19.90;77.00;;;;;;5020843;28;20067;-80
2021/06/16 03:23:09;;;;;;;5.50;2.60;;;19.90;77.20;;;;;;5022733;28;20071;-81
2021/06/16 03:25:36;;;;;;;6.10;2.78;;;19.80;77.40;;;;;;5042948;28;20049;-80
2021/06/16 03:28:05;;;;;;;4.32;3.33;;;19.70;77.80;;;;;;5024281;28;20030;-79
2021/06/16 03:30:32;;;;;;;5.63;2.92;;;19.70;77.80;;;;;;5024327;28;20031;-83
2021/06/16 03:32:59;;;;;;;4.38;2.88;;;19.70;77.60;;;;;;5040961;28;20029;-79
2021/06/16 03:35:25;;;;;;;5.00;3.00;;;19.70;78.00;;;;;;5024312;28;20120;-79
2021/06/16 03:37:53;;;;;;;4.68;3.35;;;19.70;78.20;;;;;;5023876;28;20057;-79
2021/06/16 03:40:19;;;;;;;4.05;3.05;;;19.70;78.20;;;;;;5041896;28;20032;-78
2021/06/16 03:42:48;;;;;;;4.07;2.90;;;19.70;78.30;;;;;;5025350;28;20032;-81
2021/06/16 03:45:14;;;;;;;4.18;2.80;;;19.70;78.40;;;;;;5044099;28;20025;-79
2021/06/16 03:47:43;;;;;;;5.47;3.15;;;19.70;78.40;;;;;;5043160;28;20082;-78
2021/06/16 03:50:15;;;;;;;4.82;3.25;;;19.70;78.40;;;;;;5042940;28;20032;-76
2021/06/16 03:52:42;;;;;;;4.20;3.42;;;19.70;78.50;;;;;;5062565;28;20053;-80
2021/06/16 03:55:09;;;;;;;6.82;3.70;;;19.70;78.40;;;;;;5044305;28;20033;-80
2021/06/16 03:57:37;;;;;;;3.50;3.20;;;19.80;78.60;;;;;;5062613;28;20346;-80
2021/06/16 04:00:03;;;;;;;5.28;3.40;;;19.80;78.70;;;;;;5044122;28;20409;-80
2021/06/16 04:02:30;;;;;;;5.72;3.55;;;19.80;78.60;;;;;;5044845;28;20028;-79
2021/06/16 04:05:00;;;;;;;5.72;3.33;;;19.80;78.70;;;;;;5042899;28;20377;-79
2021/06/16 04:07:26;;;;;;;5.03;3.20;;;19.80;78.60;;;;;;5061311;28;20017;-78
2021/06/16 04:09:54;;;;;;;4.57;3.17;;;19.80;78.50;;;;;;5060705;28;20032;-79
2021/06/16 04:12:21;;;;;;;5.85;3.00;;;19.80;78.30;;;;;;5043594;28;20056;-78
2021/06/16 04:14:47;;;;;;;5.78;3.20;;;19.80;78.10;;;;;;5042706;28;20366;-79
2021/06/16 04:17:19;;;;;;;4.47;3.17;;;19.80;77.90;;;;;;5043608;28;20100;-81
2021/06/16 04:19:45;;;;;;;4.90;3.33;;;19.80;78.20;;;;;;5061143;28;20028;-82
2021/06/16 04:22:12;;;;;;;6.38;3.47;;;19.90;78.10;;;;;;5061380;28;20029;-78
2021/06/16 04:24:37;;;;;;;4.70;3.42;;;19.90;78.10;;;;;;5043649;28;20021;-79
2021/06/16 04:27:03;;;;;;;4.25;3.00;;;19.80;77.90;;;;;;5043337;28;20131;-78
2021/06/16 04:29:29;;;;;;;8.18;3.55;;;19.90;77.80;;;;;;5043026;28;20033;-77
2021/06/16 04:31:55;;;;;;;5.47;3.40;;;19.80;78.10;;;;;;5043594;28;20036;-80
2021/06/16 04:34:21;;;;;;;6.68;3.47;;;19.90;78.00;;;;;;5041813;28;20435;-77
2021/06/16 04:36:47;;;;;;;4.60;3.10;;;19.90;78.20;;;;;;5041725;28;20025;-79
2021/06/16 04:39:12;;;;;;;4.07;3.20;;;19.90;77.90;;;;;;5041679;28;20515;-78
2021/06/16 04:41:38;;;;;;;4.10;3.28;;;19.90;78.20;;;;;;5042838;28;20143;-79
2021/06/16 04:44:04;;;;;;;5.25;3.60;;;19.90;78.20;;;;;;5060231;28;20055;-79
2021/06/16 04:46:30;;;;;;;5.82;3.58;;;19.90;78.00;;;;;;5043120;28;20060;-80
2021/06/16 04:48:55;;;;;;;3.90;3.30;;;19.90;78.20;;;;;;5041413;28;20029;-79
2021/06/16 04:51:21;;;;;;;6.47;3.83;;;19.90;78.30;;;;;;5041593;28;20025;-80
2021/06/16 04:53:47;;;;;;;4.93;3.47;;;20.00;78.10;;;;;;5042020;28;20415;-79
2021/06/16 04:56:12;;;;;;;4.13;3.25;;;20.00;78.00;;;;;;5060416;28;20043;-78
2021/06/16 04:58:38;;;;;;;4.75;3.00;;;20.00;77.90;;;;;;5041973;28;20028;-79
2021/06/16 05:01:04;;;;;;;4.57;3.03;;;20.10;78.30;;;;;;5040864;28;20599;-78
2021/06/16 05:03:29;;;;;;;5.38;3.50;;;20.20;78.20;;;;;;5041492;28;20468;-78
2021/06/16 05:05:55;;;;;;;5.38;3.28;;;20.20;77.90;;;;;;5041212;28;20057;-78
2021/06/16 05:08:21;;;;;;;3.80;2.80;;;20.20;78.10;;;;;;5041444;28;20029;-77
2021/06/16 05:10:46;;;;;;;5.25;3.25;;;20.30;77.90;;;;;;5041090;28;20028;-81
2021/06/16 05:13:12;;;;;;;5.30;3.33;;;20.30;77.90;;;;;;5040441;28;20473;-79
2021/06/16 05:15:37;;;;;;;5.70;3.25;;;20.30;77.40;;;;;;5041471;28;20364;-77
2021/06/16 05:18:05;;;;;;;5.40;3.20;;;20.40;77.20;;;;;;5040673;28;20040;-78
2021/06/16 05:20:30;;;;;;;4.20;2.88;;;20.40;77.20;;;;;;5059220;28;20028;-78
2021/06/16 05:22:58;;;;;;;6.13;3.10;;;20.50;77.10;;;;;;5041149;28;20021;-79
2021/06/16 05:25:24;;;;;;;4.35;2.80;;;20.50;77.60;;;;;;5042966;28;20063;-78
2021/06/16 05:27:49;;;;;;;4.15;3.03;;;20.60;76.60;;;;;;5060883;28;20028;-78
2021/06/16 05:30:19;;;;;;;3.67;2.70;;;20.60;76.40;;;;;;5060450;28;20057;-78
2021/06/16 05:32:44;;;;;;;5.00;2.85;;;20.70;76.00;;;;;;5077256;28;20029;-79
2021/06/16 05:35:10;;;;;;;4.18;2.70;;;20.70;75.50;;;;;;5060625;28;20032;-79
2021/06/16 05:37:36;;;;;;;3.85;2.67;;;20.80;75.40;;;;;;5061893;28;20052;-79
2021/06/16 05:40:06;;;;;;;4.22;2.90;;;20.80;74.70;;;;;;5060806;28;20032;-79
2021/06/16 05:42:32;;;;;;;4.38;2.72;;;20.80;75.20;;;;;;5062226;28;20027;-82
2021/06/16 05:44:57;;;;;;;5.72;2.80;;;20.80;74.70;;;;;;5061594;28;20119;-81
2021/06/16 05:47:24;;;;;;;3.60;2.42;;;20.90;75.00;;;;;;5079618;28;20034;-80
2021/06/16 05:49:49;;;;;;;5.35;2.90;;;20.90;75.40;;;;;;5043456;28;20040;-80
2021/06/16 05:52:15;;;;;;;5.28;3.13;;;20.80;75.00;;;;;;5059532;28;20041;-80
2021/06/16 05:54:41;;;;;;;4.32;2.78;;;20.90;74.80;;;;;;5042058;28;20025;-80
2021/06/16 05:57:07;;;;;;;3.72;2.97;;;20.90;75.20;;;;;;5040845;28;20040;-79
2021/06/16 05:59:33;;;;;;;4.18;2.78;;;21.00;74.70;;;;;;5042467;28;20037;-82
2021/06/16 06:02:00;;;;;;;4.32;2.63;;;21.00;74.30;;;;;;5041685;28;20024;-80
2021/06/16 06:04:26;;;;;;;4.07;2.42;;;21.10;73.90;;;;;;5042606;28;20025;-80
2021/06/16 06:06:51;;;;;;;3.67;2.72;;;21.10;73.70;;;;;;5041718;28;20036;-81
2021/06/16 06:09:17;;;;;;;4.13;2.50;;;21.20;73.80;;;;;;5041828;28;20102;-78
2021/06/16 06:11:43;;;;;;;3.70;2.33;;;21.10;73.60;;;;;;5040768;28;20035;-82
2021/06/16 06:14:08;;;;;;;5.55;2.90;;;21.20;72.90;;;;;;5041393;28;20060;-80
2021/06/16 06:16:34;;;;;;;4.45;2.63;;;21.20;73.00;;;;;;5040760;28;20021;-79
2021/06/16 06:19:00;;;;;;;3.40;2.70;;;21.20;73.00;;;;;;5039796;28;20120;-79
2021/06/16 06:21:30;;;;;;;4.15;2.90;;;21.20;72.60;;;;;;5040437;28;20481;-79
2021/06/16 06:23:57;;;;;;;5.70;2.33;;;21.30;72.60;;;;;;5041257;28;20029;-82
2021/06/16 06:26:22;;;;;;;3.80;2.40;;;21.30;72.60;;;;;;5042084;28;20233;-81
2021/06/16 06:28:48;;;;;;;4.22;2.80;;;21.30;72.30;;;;;;5040590;28;20060;-81
2021/06/16 06:31:14;;;;;;;4.40;2.15;;;21.30;72.20;;;;;;5059012;28;20454;-80
2021/06/16 06:33:39;;;;;;;5.32;2.97;;;21.40;72.10;;;;;;5058810;28;20036;-80
2021/06/16 06:36:05;;;;;;;3.00;2.35;;;21.40;72.10;;;;;;5041930;28;20036;-81
2021/06/16 06:38:31;;;;;;;6.00;2.50;;;21.40;72.20;;;;;;5059546;28;20024;-79
2021/06/16 06:40:56;;;;;;;5.38;2.92;;;21.40;72.00;;;;;;5041291;28;20049;-79
2021/06/16 06:43:22;;;;;;;5.55;2.75;;;21.40;72.50;;;;;;5040853;28;20052;-79
2021/06/16 06:45:48;;;;;;;6.28;2.85;;;21.50;72.00;;;;;;5058829;28;20029;-79
2021/06/16 06:48:13;;;;;;;3.67;2.28;;;21.40;72.00;;;;;;5045849;28;20025;-79
2021/06/16 06:50:39;;;;;;;4.70;2.42;;;21.50;72.10;;;;;;5061630;28;20031;-81
2021/06/16 06:53:05;;;;;;;3.97;2.58;;;21.50;72.00;;;;;;5061073;28;20024;-79
2021/06/16 06:55:30;;;;;;;4.55;2.50;;;21.50;72.30;;;;;;5062008;28;20380;-79
2021/06/16 06:57:56;;;;;;;3.92;2.58;;;21.50;71.70;;;;;;5060806;28;20021;-80
2021/06/16 07:00:22;;;;;;;4.45;2.60;;;21.50;70.90;;;;;;5061098;28;20533;-78
2021/06/16 07:02:48;;;;;;;4.03;2.80;;;21.60;71.90;;;;;;5060872;28;20021;-82
2021/06/16 07:05:14;;;;;;;2.83;2.30;;;21.60;70.90;;;;;;5061481;28;20056;-80
2021/06/16 07:07:40;;;;;;;2.60;2.30;;;21.70;71.40;;;;;;5061716;28;20025;-81
2021/06/16 07:10:07;;;;;;;3.08;2.50;;;21.80;70.60;;;;;;5061159;28;20098;-81
2021/06/16 07:12:32;;;;;;;5.60;2.70;;;21.80;70.70;;;;;;5079999;28;20028;-83
2021/06/16 07:14:58;;;;;;;3.45;2.30;;;21.80;70.20;;;;;;5079882;28;20044;-83
2021/06/16 07:17:24;;;;;;;5.05;2.22;;;21.90;70.60;;;;;;5062149;28;20025;-78
2021/06/16 07:19:50;;;;;;;3.50;2.58;;;21.80;70.40;;;;;;5045397;28;20025;-79
2021/06/16 07:22:16;;;;;;;3.72;2.20;;;21.90;70.70;;;;;;5051609;28;20047;-81
2021/06/16 07:24:42;;;;;;;4.68;2.60;;;21.90;70.30;;;;;;5063060;28;20469;-85
2021/06/16 07:27:10;;;;;;;4.18;2.20;;;21.90;70.10;;;;;;5062644;28;20025;-84
2021/06/16 07:29:35;;;;;;;4.57;2.40;;;22.00;70.50;;;;;;5053289;28;20033;-80
2021/06/16 07:32:02;;;;;;;4.45;2.38;;;22.00;70.70;;;;;;5042889;28;20055;-81
2021/06/16 07:34:27;;;;;;;3.90;2.35;;;22.00;70.50;;;;;;5045468;28;20020;-80
2021/06/16 07:36:54;;;;;;;3.83;2.50;;;22.10;71.00;;;;;;5055367;28;20055;-80
2021/06/16 07:39:20;;;;;;;4.35;2.83;;;22.10;70.30;;;;;;5063141;28;20029;-79
2021/06/16 07:41:46;;;;;;;4.60;2.95;;;22.10;69.80;;;;;;5055672;28;20025;-82
2021/06/16 07:44:12;;;;;;;4.80;2.22;;;22.10;69.70;;;;;;5061806;28;20084;-81
2021/06/16 07:46:38;;;;;;;3.17;2.38;;;22.20;70.30;;;;;;5048052;28;20029;-81
2021/06/16 07:49:04;;;;;;;2.75;2.30;;;22.20;70.00;;;;;;5052942;28;20058;-81
2021/06/16 07:51:30;;;;;;;3.40;2.30;;;22.20;69.80;;;;;;5067116;28;20028;-81
2021/06/16 07:53:55;;;;;;;8.20;2.53;;;22.20;70.00;;;;;;5041640;28;20369;-82
2021/06/16 07:56:22;;;;;;;3.53;2.47;;;22.30;70.00;;;;;;5042315;28;20548;-81
2021/06/16 07:58:47;;;;;;;3.67;2.40;;;22.40;70.20;;;;;;5041703;28;20028;-83
2021/06/16 08:01:13;;;;;;;3.67;2.15;;;22.50;70.00;;;;;;5044575;28;20032;-82
2021/06/16 08:03:39;;;;;;;5.00;2.58;;;22.50;70.00;;;;;;5042387;28;20029;-80
2021/06/16 08:06:04;;;;;;;2.95;2.17;;;22.50;70.50;;;;;;5042163;28;20040;-81
2021/06/16 08:08:31;;;;;;;5.10;2.42;;;22.60;70.50;;;;;;5043924;28;20032;-82
2021/06/16 08:10:56;;;;;;;5.78;2.60;;;22.60;69.50;;;;;;5045700;28;20168;-82
2021/06/16 08:13:22;;;;;;;3.97;2.67;;;22.60;68.70;;;;;;5046292;28;20104;-80
2021/06/16 08:15:48;;;;;;;3.42;2.30;;;22.60;68.70;;;;;;5050627;28;20025;-81
2021/06/16 08:18:14;;;;;;;2.83;2.30;;;22.60;68.80;;;;;;5059221;28;20476;-80
2021/06/16 08:20:39;;;;;;;4.40;2.70;;;22.70;69.20;;;;;;5044847;28;20029;-82
2021/06/16 08:23:07;;;;;;;3.72;2.50;;;22.80;69.00;;;;;;5044343;28;20489;-80
2021/06/16 08:25:34;;;;;;;4.78;2.25;;;22.80;68.30;;;;;;5052256;28;20032;-80
2021/06/16 08:28:00;;;;;;;6.25;2.90;;;22.90;68.70;;;;;;5061606;28;20054;-81
2021/06/16 08:30:26;;;;;;;5.63;2.65;;;22.90;68.40;;;;;;5049655;28;20032;-80
2021/06/16 08:32:51;;;;;;;3.30;2.38;;;23.00;67.90;;;;;;5043362;28;20025;-82
2021/06/16 08:35:17;;;;;;;4.60;2.47;;;23.10;68.30;;;;;;5038965;28;20035;-78
2021/06/16 08:37:43;;;;;;;4.13;2.60;;;23.00;68.20;;;;;;5064258;28;20416;-82
2021/06/16 08:40:10;;;;;;;5.45;2.80;;;23.10;68.10;;;;;;5057579;28;20074;-80
2021/06/16 08:42:36;;;;;;;3.08;2.20;;;23.10;67.60;;;;;;5058052;28;20031;-81
2021/06/16 08:45:03;;;;;;;3.17;2.45;;;23.10;67.80;;;;;;5056988;28;20037;-82
2021/06/16 08:47:29;;;;;;;3.10;2.67;;;23.20;68.20;;;;;;5056052;28;20525;-80
2021/06/16 08:49:55;;;;;;;4.93;2.33;;;23.20;68.20;;;;;;5037955;28;20119;-81
2021/06/16 08:52:21;;;;;;;3.78;2.63;;;23.20;67.50;;;;;;5055497;28;20040;-80
2021/06/16 08:54:47;;;;;;;5.57;2.55;;;23.30;67.30;;;;;;5049238;28;20117;-82
2021/06/16 08:57:13;;;;;;;4.85;2.67;;;23.30;66.60;;;;;;5046840;28;20457;-79
2021/06/16 08:59:39;;;;;;;4.15;2.47;;;23.30;66.40;;;;;;5047104;28;20107;-80
2021/06/16 09:02:05;;;;;;;3.78;2.63;;;23.40;66.20;;;;;;5050205;28;20058;-80
2021/06/16 09:04:48;;;;;;;4.07;2.40;;;23.40;66.20;;;;;;5056703;28;20097;-80
2021/06/16 09:07:20;;;;;;;2.90;2.58;;;23.40;66.60;;;;;;5070923;28;20033;-79
2021/06/16 09:09:49;;;;;;;3.90;2.38;;;23.40;66.30;;;;;;5046181;28;20055;-81
2021/06/16 09:12:29;;;;;;;3.92;2.70;;;23.40;66.50;;;;;;5046848;28;20029;-79
2021/06/16 09:14:56;;;;;;;4.28;2.45;;;23.50;67.80;;;;;;5033441;28;20457;-79
2021/06/16 09:17:24;;;;;;;3.53;2.63;;;23.60;67.50;;;;;;5044955;28;20033;-80
2021/06/16 09:19:55;;;;;;;4.05;2.42;;;23.70;68.10;;;;;;5046221;28;20024;-79
2021/06/16 09:22:32;;;;;;;3.95;2.60;;;23.70;68.10;;;;;;5045134;28;20469;-81
2021/06/16 09:25:00;;;;;;;6.30;3.13;;;23.80;68.00;;;;;;5053132;28;20032;-80
2021/06/16 09:27:44;;;;;;;6.57;2.70;;;23.80;69.40;;;;;;5046740;28;20501;-81
2021/06/16 09:30:18;;;;;;;3.28;2.85;;;24.00;68.50;;;;;;5046242;28;20036;-80
2021/06/16 09:32:46;;;;;;;5.93;2.97;;;24.20;67.80;;;;;;5066271;28;20056;-81
2021/06/16 09:35:25;;;;;;;4.90;2.83;;;24.20;67.70;;;;;;5055368;28;20021;-79
2021/06/16 09:37:52;;;;;;;4.88;2.40;;;24.20;67.60;;;;;;5056156;28;20372;-80
2021/06/16 09:40:28;;;;;;;5.78;3.30;;;24.30;67.20;;;;;;5074342;28;20370;-79
2021/06/16 09:43:00;;;;;;;7.43;3.00;;;24.30;67.60;;;;;;5072555;28;20385;-84
2021/06/16 09:45:26;;;;;;;3.92;2.80;;;24.40;67.60;;;;;;5023136;28;20033;-78
2021/06/16 09:47:51;;;;;;;4.03;3.10;;;24.50;67.70;;;;;;5008755;28;20037;-83
2021/06/16 09:50:23;;;;;;;7.28;3.30;;;24.60;67.30;;;;;;5015762;28;20589;-80
2021/06/16 09:52:50;;;;;;;5.18;2.80;;;24.60;67.60;;;;;;5015031;28;20029;-80
2021/06/16 09:55:26;;;;;;;6.20;2.95;;;24.70;67.40;;;;;;5015231;28;20041;-78
2021/06/16 09:58:08;;;;;;;5.22;3.10;;;24.70;66.90;;;;;;5014857;28;20021;-78
2021/06/16 10:00:55;;;;;;;6.53;3.50;;;24.70;66.80;;;;;;5015025;28;20033;-79
2021/06/16 10:03:22;;;;;;;7.72;3.10;;;24.70;66.40;;;;;;5031697;28;20025;-78
2021/06/16 10:06:07;;;;;;;4.43;2.63;;;24.90;66.30;;;;;;5014356;28;20040;-78
2021/06/16 10:08:36;;;;;;;6.00;2.72;;;24.90;65.40;;;;;;5014989;28;20049;-78
2021/06/16 10:11:04;;;;;;;4.97;3.17;;;25.10;65.50;;;;;;5031322;28;20124;-78
2021/06/16 10:13:31;;;;;;;8.13;3.05;;;25.20;65.60;;;;;;5009141;28;20487;-78
2021/06/16 10:15:58;;;;;;;3.72;2.88;;;25.10;65.40;;;;;;5035709;28;20037;-78
2021/06/16 10:18:25;;;;;;;4.65;2.72;;;25.10;65.10;;;;;;5042198;28;20081;-78
2021/06/16 10:20:52;;;;;;;4.32;3.00;;;25.20;64.90;;;;;;5055153;28;20036;-79
2021/06/16 10:23:18;;;;;;;4.45;2.80;;;25.30;64.40;;;;;;5055702;28;20053;-79
2021/06/16 10:25:45;;;;;;;4.35;2.70;;;25.30;64.30;;;;;;5054871;28;20020;-79
2021/06/16 10:28:15;;;;;;;5.90;3.10;;;25.40;63.80;;;;;;5071615;28;20021;-78
2021/06/16 10:30:43;;;;;;;6.82;3.25;;;25.50;64.20;;;;;;5073494;28;20036;-78
2021/06/16 10:33:29;;;;;;;4.43;3.00;;;25.60;64.00;;;;;;5055352;28;20024;-79
2021/06/16 10:36:18;;;;;;;5.22;2.95;;;25.60;64.00;;;;;;5072938;28;20483;-78
2021/06/16 10:39:06;;;;;;;5.60;3.10;;;25.70;65.60;;;;;;5055304;28;20028;-82
2021/06/16 10:41:40;;;;;;;4.85;2.55;;;25.70;64.70;;;;;;5055207;28;20035;-79
2021/06/16 10:44:14;;;;;;;4.13;2.60;;;25.90;65.10;;;;;;5052592;28;20479;-78
2021/06/16 10:46:49;;;;;;;7.97;4.47;;;25.90;64.70;;;;;;5047220;28;20037;-78
2021/06/16 10:49:47;;;;;;;8.57;3.60;;;25.90;64.00;;;;;;5055219;28;20039;-79
2021/06/16 10:52:22;;;;;;;3.33;2.78;;;26.00;63.40;;;;;;5055378;28;20129;-79
2021/06/16 10:55:06;;;;;;;6.00;3.03;;;26.10;63.60;;;;;;5054936;28;20120;-81
2021/06/16 10:57:33;;;;;;;6.10;2.80;;;26.20;63.60;;;;;;5073013;28;20028;-80
2021/06/16 11:00:06;;;;;;;6.47;3.00;;;26.30;62.50;;;;;;5055243;28;20025;-83
2021/06/16 11:02:33;;;;;;;3.15;2.50;;;26.30;61.80;;;;;;5054393;28;20025;-81
2021/06/16 11:05:21;;;;;;;3.15;2.45;;;26.40;62.30;;;;;;5054776;28;20078;-80
2021/06/16 11:07:47;;;;;;;3.83;2.70;;;26.50;62.20;;;;;;5055325;28;20025;-83
2021/06/16 11:10:13;;;;;;;3.45;2.30;;;26.60;62.40;;;;;;5056012;28;20090;-82
2021/06/16 11:12:44;;;;;;;3.33;2.50;;;26.70;62.20;;;;;;5055954;28;20123;-82
2021/06/16 11:15:25;;;;;;;;;;;26.70;62.50;;;;;;5056555;28;20029;-83
2021/06/16 11:17:52;;;;;;;3.60;2.83;;;26.80;61.40;;;;;;5046360;28;19947;-80
2021/06/16 11:20:22;;;;;;;4.47;2.22;;;26.90;61.10;;;;;;5041739;28;20032;-81
2021/06/16 11:22:51;;;;;;;4.40;2.50;;;26.90;60.50;;;;;;5044200;28;20079;-80
2021/06/16 11:25:27;;;;;;;3.50;2.63;;;27.00;60.90;;;;;;5046386;28;20082;-80
2021/06/16 11:28:13;;;;;;;3.05;2.35;;;27.10;60.00;;;;;;5038318;28;20127;-85
2021/06/16 11:30:54;;;;;;;3.47;2.42;;;27.20;59.20;;;;;;5046470;28;20055;-83
2021/06/16 11:33:22;;;;;;;3.00;2.25;;;27.30;58.70;;;;;;5046967;28;20063;-81
2021/06/16 11:36:00;;;;;;;3.45;2.38;;;27.30;58.20;;;;;;5043651;28;20025;-83
2021/06/16 11:38:29;;;;;;;2.63;2.38;;;27.40;57.70;;;;;;5052888;28;20037;-78
2021/06/16 11:41:16;;;;;;;3.58;2.38;;;27.40;58.30;;;;;;5047056;28;20027;-78
2021/06/16 11:43:52;;;;;;;3.92;2.30;;;27.50;57.70;;;;;;5042256;28;20084;-78
2021/06/16 11:46:27;;;;;;;3.40;2.45;;;27.60;57.40;;;;;;5037504;28;20033;-79
2021/06/16 11:49:18;;;;;;;3.53;2.83;;;27.60;57.90;;;;;;5044359;28;20033;-78
2021/06/16 11:51:52;;;;;;;2.50;2.30;;;27.80;58.00;;;;;;5035069;28;20036;-82
2021/06/16 11:54:24;;;;;;;3.13;2.40;;;27.80;57.20;;;;;;5037048;28;20071;-79
2021/06/16 11:56:54;;;;;;;3.78;2.28;;;27.90;55.00;;;;;;5036823;28;20056;-80
2021/06/16 11:59:52;;;;;;;4.85;2.08;;;27.90;55.10;;;;;;5034826;28;20127;-78
2021/06/16 12:02:26;;;;;;;5.85;2.72;;;27.90;54.90;;;;;;5037403;28;20040;-78
2021/06/16 12:05:06;;;;;;;5.63;2.15;;;28.00;54.30;;;;;;5036999;28;20048;-78
2021/06/16 12:07:45;;;;;;;3.40;2.08;;;28.20;55.80;;;;;;5053222;28;20024;-78
2021/06/16 12:10:13;;;;;;;2.67;2.00;;;28.20;53.90;;;;;;5035139;28;20032;-79
2021/06/16 12:12:54;;;;;;;3.05;2.25;;;28.30;52.60;;;;;;5037161;28;20036;-80
2021/06/16 12:15:23;;;;;;;4.30;1.90;;;28.30;52.20;;;;;;5037252;28;20463;-79
2021/06/16 12:17:57;;;;;;;2.85;2.13;;;28.20;52.10;;;;;;5036159;28;20021;-79
2021/06/16 12:20:24;;;;;;;4.18;2.22;;;28.30;51.80;;;;;;5035534;28;20036;-80
2021/06/16 12:22:50;;;;;;;4.55;2.20;;;28.40;51.70;;;;;;5036665;28;20462;-78
2021/06/16 12:25:31;;;;;;;5.38;2.55;;;28.40;51.40;;;;;;5036775;28;20025;-78
2021/06/16 12:27:57;;;;;;;4.07;2.10;;;28.50;51.00;;;;;;5035053;28;20025;-79
2021/06/16 12:30:29;;;;;;;3.80;2.20;;;28.60;51.00;;;;;;5036834;28;20048;-79
2021/06/16 12:33:24;;;;;;;5.10;2.30;;;28.60;51.20;;;;;;5036685;28;20017;-79
2021/06/16 12:35:56;;;;;;;3.65;2.33;;;28.80;50.20;;;;;;5036184;28;20025;-79
2021/06/16 12:38:35;;;;;;;3.45;2.28;;;28.90;50.90;;;;;;5037289;28;20535;-78
2021/06/16 12:41:01;;;;;;;2.55;2.33;;;29.00;50.80;;;;;;5026216;28;20032;-79
2021/06/16 12:43:28;;;;;;;5.28;2.20;;;29.10;52.10;;;;;;5044108;28;20048;-79
2021/06/16 12:45:57;;;;;;;3.53;2.38;;;29.20;51.70;;;;;;5056676;28;20028;-79
2021/06/16 12:48:28;;;;;;;2.38;2.17;;;29.20;52.30;;;;;;5050097;28;20032;-82
2021/06/16 12:50:58;;;;;;;;;;;29.40;52.30;;;;;;5040082;28;20465;-81
2021/06/16 12:53:26;;;;;;;3.67;2.40;;;29.50;52.00;;;;;;5044756;28;19915;-80
2021/06/16 12:55:58;;;;;;;3.92;2.22;;;29.50;50.70;;;;;;5057891;28;20035;-81